createdAt,value
2018-01-26T00:00:53.002Z,974.34
2018-01-26T00:01:52.957Z,974.34
2018-01-26T00:02:52.958Z,974.31
2018-01-26T00:03:52.946Z,974.33
2018-01-26T00:04:52.946Z,974.33
2018-01-26T00:05:52.981Z,974.29
2018-01-26T00:06:52.950Z,974.32
2018-01-26T00:07:52.949Z,974.26
2018-01-26T00:08:52.947Z,974.29
2018-01-26T00:09:52.934Z,974.32
2018-01-26T00:10:52.985Z,974.30
2018-01-26T00:11:52.946Z,974.31
2018-01-26T00:12:52.941Z,974.29
2018-01-26T00:13:52.933Z,974.30
2018-01-26T00:14:52.941Z,974.24
2018-01-26T00:15:52.972Z,974.29
2018-01-26T00:16:52.928Z,974.23
2018-01-26T00:17:52.932Z,974.23
2018-01-26T00:18:52.928Z,974.19
2018-01-26T00:19:52.930Z,974.19
2018-01-26T00:20:52.968Z,974.18
2018-01-26T00:21:52.918Z,974.15
2018-01-26T00:22:52.933Z,974.13
2018-01-26T00:23:53.386Z,974.15
2018-01-26T00:24:52.915Z,974.16
2018-01-26T00:25:52.959Z,974.18
2018-01-26T00:26:52.968Z,974.17
2018-01-26T00:27:52.922Z,974.11
2018-01-26T00:28:52.916Z,974.18
2018-01-26T00:29:52.913Z,974.15
2018-01-26T00:30:52.903Z,974.23
2018-01-26T00:31:52.956Z,974.23
2018-01-26T00:32:52.904Z,974.22
2018-01-26T00:33:52.912Z,974.28
2018-01-26T00:34:52.906Z,974.23
2018-01-26T00:35:52.895Z,974.25
2018-01-26T00:36:52.951Z,974.22
2018-01-26T00:37:52.903Z,974.20
2018-01-26T00:38:52.891Z,974.18
2018-01-26T00:39:52.895Z,974.19
2018-01-26T00:40:52.891Z,974.21
2018-01-26T00:41:52.890Z,974.26
2018-01-26T00:42:52.922Z,974.23
2018-01-26T00:43:52.883Z,974.26
2018-01-26T00:44:52.893Z,974.22
2018-01-26T00:45:53.450Z,974.24
2018-01-26T00:46:52.888Z,974.24
2018-01-26T00:47:52.890Z,974.28
2018-01-26T00:48:52.881Z,974.22
2018-01-26T00:49:52.873Z,974.24
2018-01-26T00:50:52.923Z,974.26
2018-01-26T00:51:53.643Z,974.23
2018-01-26T00:52:52.910Z,974.22
2018-01-26T00:53:52.867Z,974.19
2018-01-26T00:54:52.874Z,974.17
2018-01-26T00:55:52.872Z,974.15
2018-01-26T00:56:52.918Z,974.15
2018-01-26T00:57:52.870Z,974.09
2018-01-26T00:58:52.863Z,974.08
2018-01-26T00:59:52.869Z,974.10
2018-01-26T01:00:52.860Z,974.11
2018-01-26T01:01:52.910Z,974.10
2018-01-26T01:02:52.852Z,974.06
2018-01-26T01:03:52.852Z,974.09
2018-01-26T01:04:52.860Z,973.99
2018-01-26T01:05:52.848Z,973.92
2018-01-26T01:06:52.898Z,973.97
2018-01-26T01:07:52.888Z,973.98
2018-01-26T01:08:52.844Z,973.94
2018-01-26T01:09:52.855Z,973.91
2018-01-26T01:10:52.898Z,973.91
2018-01-26T01:11:52.841Z,973.87
2018-01-26T01:12:52.892Z,973.90
2018-01-26T01:13:52.844Z,973.93
2018-01-26T01:14:52.837Z,973.95
2018-01-26T01:15:52.843Z,973.96
2018-01-26T01:16:52.842Z,973.94
2018-01-26T01:17:52.871Z,973.92
2018-01-26T01:18:52.828Z,973.90
2018-01-26T01:19:52.839Z,973.98
2018-01-26T01:20:52.826Z,973.97
2018-01-26T01:21:52.823Z,973.97
2018-01-26T01:22:52.866Z,973.99
2018-01-26T01:23:52.831Z,973.94
2018-01-26T01:24:52.832Z,973.96
2018-01-26T01:25:52.826Z,973.96
2018-01-26T01:26:52.818Z,973.93
2018-01-26T01:27:52.871Z,973.87
2018-01-26T01:28:52.824Z,973.86
2018-01-26T01:29:52.813Z,973.82
2018-01-26T01:30:52.824Z,973.81
2018-01-26T01:31:52.823Z,973.78
2018-01-26T01:32:52.862Z,973.79
2018-01-26T01:33:52.847Z,973.78
2018-01-26T01:34:52.807Z,973.73
2018-01-26T01:35:52.804Z,973.79
2018-01-26T01:36:52.812Z,973.80
2018-01-26T01:37:52.815Z,973.80
2018-01-26T01:38:52.844Z,973.73
2018-01-26T01:39:52.798Z,973.76
2018-01-26T01:40:52.802Z,973.74
2018-01-26T01:41:52.813Z,973.75
2018-01-26T01:42:52.840Z,973.77
2018-01-26T01:43:52.803Z,973.75
2018-01-26T01:44:52.794Z,973.65
2018-01-26T01:45:52.799Z,973.72
2018-01-26T01:46:52.807Z,973.72
2018-01-26T01:47:52.841Z,973.73
2018-01-26T01:48:52.801Z,973.73
2018-01-26T01:49:52.797Z,973.74
2018-01-26T01:50:52.851Z,973.74
2018-01-26T01:51:52.791Z,973.71
2018-01-26T01:52:52.829Z,973.71
2018-01-26T01:53:52.829Z,973.70
2018-01-26T01:54:52.779Z,973.66
2018-01-26T01:55:52.780Z,973.66
2018-01-26T01:56:52.786Z,973.66
2018-01-26T01:57:52.821Z,973.65
2018-01-26T01:58:52.831Z,973.60
2018-01-26T01:59:52.775Z,973.66
2018-01-26T02:00:52.777Z,973.58
2018-01-26T02:01:53.245Z,973.64
2018-01-26T02:02:52.819Z,973.64
2018-01-26T02:03:52.821Z,973.66
2018-01-26T02:04:52.774Z,973.61
2018-01-26T02:05:52.763Z,973.63
2018-01-26T02:06:52.771Z,973.64
2018-01-26T02:07:52.760Z,973.62
2018-01-26T02:08:52.810Z,973.66
2018-01-26T02:09:52.766Z,973.61
2018-01-26T02:10:52.768Z,973.56
2018-01-26T02:11:52.755Z,973.60
2018-01-26T02:12:52.804Z,973.61
2018-01-26T02:13:52.761Z,973.58
2018-01-26T02:14:52.760Z,973.43
2018-01-26T02:15:52.759Z,973.46
2018-01-26T02:16:52.747Z,973.49
2018-01-26T02:17:52.784Z,973.49
2018-01-26T02:18:52.754Z,973.45
2018-01-26T02:19:52.752Z,973.32
2018-01-26T02:20:52.753Z,973.29
2018-01-26T02:21:52.749Z,973.36
2018-01-26T02:22:52.789Z,973.37
2018-01-26T02:23:52.765Z,973.45
2018-01-26T02:24:52.764Z,973.45
2018-01-26T02:25:52.759Z,973.43
2018-01-26T02:26:52.762Z,973.43
2018-01-26T02:27:52.817Z,973.45
2018-01-26T02:28:52.757Z,973.40
2018-01-26T02:29:52.756Z,973.43
2018-01-26T02:30:52.756Z,973.41
2018-01-26T02:31:52.753Z,973.48
2018-01-26T02:32:52.799Z,973.38
2018-01-26T02:33:52.794Z,973.38
2018-01-26T02:34:52.748Z,973.54
2018-01-26T02:35:52.754Z,973.40
2018-01-26T02:36:52.751Z,973.51
2018-01-26T02:37:52.742Z,973.48
2018-01-26T02:38:52.792Z,973.53
2018-01-26T02:39:52.750Z,973.54
2018-01-26T02:40:52.742Z,973.52
2018-01-26T02:41:52.739Z,973.55
2018-01-26T02:42:52.736Z,973.56
2018-01-26T02:43:52.778Z,973.54
2018-01-26T02:44:52.736Z,973.52
2018-01-26T02:45:52.741Z,973.55
2018-01-26T02:46:52.735Z,973.51
2018-01-26T02:47:52.731Z,973.49
2018-01-26T02:48:52.780Z,973.51
2018-01-26T02:49:52.731Z,973.53
2018-01-26T02:50:52.726Z,973.51
2018-01-26T02:51:52.725Z,973.51
2018-01-26T02:52:52.724Z,973.53
2018-01-26T02:53:52.720Z,973.48
2018-01-26T02:54:52.783Z,973.47
2018-01-26T02:55:52.738Z,973.55
2018-01-26T02:56:52.718Z,973.53
2018-01-26T02:57:52.754Z,973.56
2018-01-26T02:58:52.717Z,973.51
2018-01-26T02:59:52.718Z,973.55
2018-01-26T03:00:52.754Z,973.52
2018-01-26T03:01:52.710Z,973.53
2018-01-26T03:02:52.716Z,973.49
2018-01-26T03:03:52.708Z,973.50
2018-01-26T03:04:52.706Z,973.51
2018-01-26T03:05:52.755Z,973.54
2018-01-26T03:06:52.703Z,973.56
2018-01-26T03:07:52.706Z,973.53
2018-01-26T03:08:52.703Z,973.51
2018-01-26T03:09:52.697Z,973.54
2018-01-26T03:10:52.698Z,973.55
2018-01-26T03:11:52.742Z,973.58
2018-01-26T03:12:52.695Z,973.59
2018-01-26T03:13:52.695Z,973.59
2018-01-26T03:14:52.696Z,973.60
2018-01-26T03:15:52.692Z,973.59
2018-01-26T03:16:52.748Z,973.60
2018-01-26T03:17:52.729Z,973.62
2018-01-26T03:18:52.690Z,973.54
2018-01-26T03:19:52.687Z,973.55
2018-01-26T03:20:52.687Z,973.56
2018-01-26T03:21:52.685Z,973.55
2018-01-26T03:22:52.726Z,973.54
2018-01-26T03:23:52.681Z,973.56
2018-01-26T03:24:52.682Z,973.51
2018-01-26T03:25:52.677Z,973.49
2018-01-26T03:26:52.677Z,973.49
2018-01-26T03:27:52.734Z,973.52
2018-01-26T03:28:52.673Z,973.57
2018-01-26T03:29:52.670Z,973.56
2018-01-26T03:30:52.671Z,973.56
2018-01-26T03:31:52.671Z,973.60
2018-01-26T03:32:52.704Z,973.61
2018-01-26T03:33:52.708Z,973.64
2018-01-26T03:34:52.663Z,973.64
2018-01-26T03:35:52.663Z,973.67
2018-01-26T03:36:52.663Z,973.73
2018-01-26T03:37:52.661Z,973.71
2018-01-26T03:38:52.697Z,973.76
2018-01-26T03:39:52.663Z,973.77
2018-01-26T03:40:52.667Z,973.77
2018-01-26T03:41:52.653Z,973.78
2018-01-26T03:42:52.657Z,973.80
2018-01-26T03:43:52.710Z,973.82
2018-01-26T03:44:52.652Z,973.84
2018-01-26T03:45:52.651Z,973.83
2018-01-26T03:46:52.647Z,973.82
2018-01-26T03:47:52.647Z,973.80
2018-01-26T03:48:52.647Z,973.81
2018-01-26T03:49:52.681Z,973.78
2018-01-26T03:50:52.699Z,973.81
2018-01-26T03:51:52.643Z,973.81
2018-01-26T03:52:52.641Z,973.85
2018-01-26T03:53:52.639Z,973.89
2018-01-26T03:54:52.696Z,973.90
2018-01-26T03:55:52.638Z,973.94
2018-01-26T03:56:52.639Z,973.94
2018-01-26T03:57:52.691Z,973.92
2018-01-26T03:58:52.635Z,973.93
2018-01-26T03:59:52.636Z,973.96
2018-01-26T04:00:52.636Z,973.97
2018-01-26T04:01:52.631Z,973.98
2018-01-26T04:02:52.672Z,974.04
2018-01-26T04:03:52.625Z,974.01
2018-01-26T04:04:52.627Z,974.07
2018-01-26T04:05:52.679Z,974.07
2018-01-26T04:06:52.624Z,974.11
2018-01-26T04:07:52.626Z,974.09
2018-01-26T04:08:52.620Z,974.08
2018-01-26T04:09:52.622Z,974.11
2018-01-26T04:10:52.631Z,974.15
2018-01-26T04:11:52.652Z,974.10
2018-01-26T04:12:52.617Z,974.17
2018-01-26T04:13:52.616Z,974.16
2018-01-26T04:14:52.613Z,974.21
2018-01-26T04:15:52.611Z,974.19
2018-01-26T04:16:52.650Z,974.18
2018-01-26T04:17:52.609Z,974.24
2018-01-26T04:18:52.611Z,974.21
2018-01-26T04:19:52.607Z,974.19
2018-01-26T04:20:52.874Z,974.21
2018-01-26T04:21:52.661Z,974.24
2018-01-26T04:22:52.910Z,974.29
2018-01-26T04:23:52.606Z,974.26
2018-01-26T04:24:52.639Z,974.30
2018-01-26T04:25:52.598Z,974.29
2018-01-26T04:26:52.601Z,974.30
2018-01-26T04:27:52.642Z,974.34
2018-01-26T04:28:53.470Z,974.34
2018-01-26T04:29:52.595Z,974.33
2018-01-26T04:30:52.589Z,974.35
2018-01-26T04:31:52.589Z,974.39
2018-01-26T04:32:52.626Z,974.32
2018-01-26T04:33:52.587Z,974.33
2018-01-26T04:34:52.585Z,974.30
2018-01-26T04:35:52.587Z,974.30
2018-01-26T04:36:52.587Z,974.33
2018-01-26T04:37:52.639Z,974.30
2018-01-26T04:38:52.580Z,974.35
2018-01-26T04:39:52.824Z,974.29
2018-01-26T04:40:52.577Z,974.31
2018-01-26T04:41:52.574Z,974.29
2018-01-26T04:42:52.627Z,974.33
2018-01-26T04:43:52.931Z,974.30
2018-01-26T04:44:52.572Z,974.30
2018-01-26T04:45:52.568Z,974.38
2018-01-26T04:46:52.569Z,974.37
2018-01-26T04:47:52.567Z,974.42
2018-01-26T04:48:52.605Z,974.42
2018-01-26T04:49:52.562Z,974.39
2018-01-26T04:50:52.667Z,974.41
2018-01-26T04:51:52.563Z,974.44
2018-01-26T04:52:52.557Z,974.44
2018-01-26T04:53:52.594Z,974.49
2018-01-26T04:54:52.552Z,974.46
2018-01-26T04:55:52.553Z,974.49
2018-01-26T04:56:52.552Z,974.50
2018-01-26T04:57:52.552Z,974.52
2018-01-26T04:58:52.596Z,974.50
2018-01-26T04:59:52.549Z,974.49
2018-01-26T05:00:52.547Z,974.50
2018-01-26T05:01:52.545Z,974.49
2018-01-26T05:02:52.542Z,974.50
2018-01-26T05:03:52.592Z,974.52
2018-01-26T05:04:52.540Z,974.52
2018-01-26T05:05:52.538Z,974.52
2018-01-26T05:06:52.535Z,974.59
2018-01-26T05:07:52.536Z,974.59
2018-01-26T05:08:52.535Z,974.54
2018-01-26T05:09:52.576Z,974.53
2018-01-26T05:10:52.530Z,974.54
2018-01-26T05:11:52.528Z,974.58
2018-01-26T05:12:52.531Z,974.56
2018-01-26T05:13:52.583Z,974.61
2018-01-26T05:14:52.524Z,974.58
2018-01-26T05:15:52.526Z,974.56
2018-01-26T05:16:52.521Z,974.58
2018-01-26T05:17:52.522Z,974.56
2018-01-26T05:18:52.557Z,974.57
2018-01-26T05:19:52.517Z,974.60
2018-01-26T05:20:52.518Z,974.64
2018-01-26T05:21:52.515Z,974.63
2018-01-26T05:22:52.512Z,974.66
2018-01-26T05:23:52.570Z,974.66
2018-01-26T05:24:52.511Z,974.66
2018-01-26T05:25:52.514Z,974.70
2018-01-26T05:26:52.507Z,974.69
2018-01-26T05:27:52.546Z,974.69
2018-01-26T05:28:52.544Z,974.73
2018-01-26T05:29:52.507Z,974.77
2018-01-26T05:30:52.504Z,974.80
2018-01-26T05:31:52.967Z,974.74
2018-01-26T05:32:52.502Z,974.80
2018-01-26T05:33:52.688Z,974.79
2018-01-26T05:34:52.499Z,974.81
2018-01-26T05:35:52.519Z,974.82
2018-01-26T05:36:52.502Z,974.83
2018-01-26T05:37:52.495Z,974.84
2018-01-26T05:38:52.547Z,974.86
2018-01-26T05:39:52.498Z,974.90
2018-01-26T05:40:52.492Z,974.91
2018-01-26T05:41:52.488Z,974.91
2018-01-26T05:42:52.488Z,974.90
2018-01-26T05:43:52.488Z,974.93
2018-01-26T05:44:52.542Z,974.94
2018-01-26T05:45:52.484Z,974.93
2018-01-26T05:46:52.483Z,974.94
2018-01-26T05:47:52.480Z,974.96
2018-01-26T05:48:52.479Z,975.00
2018-01-26T05:49:52.570Z,975.03
2018-01-26T05:50:52.479Z,975.07
2018-01-26T05:51:52.483Z,975.08
2018-01-26T05:52:52.514Z,975.12
2018-01-26T05:53:52.473Z,975.11
2018-01-26T05:54:52.470Z,975.09
2018-01-26T05:55:52.506Z,975.11
2018-01-26T05:56:52.469Z,975.14
2018-01-26T05:57:52.468Z,975.15
2018-01-26T05:58:52.467Z,975.18
2018-01-26T05:59:52.464Z,975.20
2018-01-26T06:00:52.523Z,975.17
2018-01-26T06:01:52.458Z,975.19
2018-01-26T06:02:52.499Z,975.23
2018-01-26T06:03:52.458Z,975.23
2018-01-26T06:04:52.459Z,975.23
2018-01-26T06:05:52.509Z,975.26
2018-01-26T06:06:52.452Z,975.26
2018-01-26T06:07:52.491Z,975.26
2018-01-26T06:08:52.453Z,975.32
2018-01-26T06:09:52.452Z,975.32
2018-01-26T06:10:52.449Z,975.38
2018-01-26T06:11:52.488Z,975.41
2018-01-26T06:12:52.449Z,975.41
2018-01-26T06:13:52.440Z,975.39
2018-01-26T06:14:52.441Z,975.41
2018-01-26T06:15:52.439Z,975.42
2018-01-26T06:16:52.496Z,975.44
2018-01-26T06:17:52.476Z,975.42
2018-01-26T06:18:52.434Z,975.41
2018-01-26T06:19:52.433Z,975.45
2018-01-26T06:20:52.493Z,975.40
2018-01-26T06:21:52.426Z,975.41
2018-01-26T06:22:52.526Z,975.47
2018-01-26T06:23:52.426Z,975.43
2018-01-26T06:24:52.436Z,975.44
2018-01-26T06:25:52.424Z,975.47
2018-01-26T06:26:52.473Z,975.48
2018-01-26T06:27:52.464Z,975.46
2018-01-26T06:28:52.444Z,975.52
2018-01-26T06:29:52.414Z,975.51
2018-01-26T06:30:52.426Z,975.54
2018-01-26T06:31:52.417Z,975.56
2018-01-26T06:32:52.454Z,975.57
2018-01-26T06:33:52.410Z,975.57
2018-01-26T06:34:52.406Z,975.57
2018-01-26T06:35:52.406Z,975.60
2018-01-26T06:36:52.410Z,975.61
2018-01-26T06:37:52.462Z,975.57
2018-01-26T06:38:52.400Z,975.59
2018-01-26T06:39:53.107Z,975.56
2018-01-26T06:40:52.398Z,975.55
2018-01-26T06:41:52.398Z,975.57
2018-01-26T06:42:52.431Z,975.61
2018-01-26T06:43:52.453Z,975.57
2018-01-26T06:44:52.394Z,975.54
2018-01-26T06:45:52.390Z,975.59
2018-01-26T06:46:52.387Z,975.57
2018-01-26T06:47:52.447Z,975.57
2018-01-26T06:48:52.386Z,975.58
2018-01-26T06:49:52.384Z,975.59
2018-01-26T06:50:52.406Z,975.59
2018-01-26T06:51:52.381Z,975.60
2018-01-26T06:52:52.420Z,975.58
2018-01-26T06:53:52.377Z,975.56
2018-01-26T06:54:52.376Z,975.58
2018-01-26T06:55:52.377Z,975.56
2018-01-26T06:56:52.373Z,975.59
2018-01-26T06:57:52.749Z,975.64
2018-01-26T06:58:52.368Z,975.64
2018-01-26T06:59:52.369Z,975.63
2018-01-26T07:00:52.365Z,975.67
2018-01-26T07:01:52.363Z,975.68
2018-01-26T07:02:52.420Z,975.69
2018-01-26T07:03:52.400Z,975.74
2018-01-26T07:04:52.362Z,975.76
2018-01-26T07:05:52.356Z,975.72
2018-01-26T07:06:52.356Z,975.75
2018-01-26T07:07:52.395Z,975.77
2018-01-26T07:08:52.351Z,975.76
2018-01-26T07:09:52.348Z,975.82
2018-01-26T07:10:52.348Z,975.81
2018-01-26T07:11:52.345Z,975.86
2018-01-26T07:12:52.403Z,975.91
2018-01-26T07:13:52.383Z,975.92
2018-01-26T07:14:52.342Z,975.96
2018-01-26T07:15:52.340Z,975.99
2018-01-26T07:16:52.337Z,975.96
2018-01-26T07:17:52.337Z,975.93
2018-01-26T07:18:52.373Z,976.01
2018-01-26T07:19:52.334Z,976.01
2018-01-26T07:20:52.333Z,976.01
2018-01-26T07:21:52.331Z,976.04
2018-01-26T07:22:52.333Z,976.07
2018-01-26T07:23:53.284Z,976.06
2018-01-26T07:24:52.327Z,976.09
2018-01-26T07:25:52.325Z,976.11
2018-01-26T07:26:53.166Z,976.12
2018-01-26T07:27:52.322Z,976.11
2018-01-26T07:28:52.319Z,976.12
2018-01-26T07:29:52.356Z,976.11
2018-01-26T07:30:52.316Z,976.12
2018-01-26T07:31:52.314Z,976.16
2018-01-26T07:32:52.312Z,976.13
2018-01-26T07:33:52.309Z,976.13
2018-01-26T07:34:52.352Z,976.13
2018-01-26T07:35:52.307Z,976.11
2018-01-26T07:36:52.306Z,976.12
2018-01-26T07:37:52.306Z,976.15
2018-01-26T07:38:52.303Z,976.14
2018-01-26T07:39:52.361Z,976.13
2018-01-26T07:40:52.304Z,976.15
2018-01-26T07:41:52.312Z,976.17
2018-01-26T07:42:52.296Z,976.19
2018-01-26T07:43:52.293Z,976.16
2018-01-26T07:44:52.349Z,976.20
2018-01-26T07:45:52.293Z,976.19
2018-01-26T07:46:52.291Z,976.21
2018-01-26T07:47:52.288Z,976.23
2018-01-26T07:48:52.288Z,976.21
2018-01-26T07:49:52.324Z,976.24
2018-01-26T07:50:52.322Z,976.23
2018-01-26T07:51:52.281Z,976.24
2018-01-26T07:52:52.279Z,976.21
2018-01-26T07:53:52.281Z,976.24
2018-01-26T07:54:52.277Z,976.23
2018-01-26T07:55:52.315Z,976.26
2018-01-26T07:56:52.278Z,976.29
2018-01-26T07:57:52.273Z,976.32
2018-01-26T07:58:52.271Z,976.36
2018-01-26T07:59:52.271Z,976.34
2018-01-26T08:00:52.329Z,976.36
2018-01-26T08:01:52.265Z,976.39
2018-01-26T08:02:52.265Z,976.40
2018-01-26T08:03:52.262Z,976.43
2018-01-26T08:04:52.318Z,976.44
2018-01-26T08:05:52.260Z,976.44
2018-01-26T08:06:52.258Z,976.43
2018-01-26T08:07:52.258Z,976.44
2018-01-26T08:08:52.256Z,976.44
2018-01-26T08:09:52.322Z,976.46
2018-01-26T08:10:52.253Z,976.42
2018-01-26T08:11:52.254Z,976.40
2018-01-26T08:12:52.250Z,976.47
2018-01-26T08:13:52.247Z,976.40
2018-01-26T08:14:52.248Z,976.43
2018-01-26T08:15:52.302Z,976.44
2018-01-26T08:16:52.243Z,976.42
2018-01-26T08:17:52.240Z,976.43
2018-01-26T08:18:52.240Z,976.41
2018-01-26T08:19:53.099Z,976.40
2018-01-26T08:20:52.241Z,976.41
2018-01-26T08:21:52.274Z,976.38
2018-01-26T08:22:52.232Z,976.39
2018-01-26T08:23:52.230Z,976.38
2018-01-26T08:24:52.231Z,976.37
2018-01-26T08:25:52.290Z,976.39
2018-01-26T08:26:52.235Z,976.40
2018-01-26T08:27:52.227Z,976.41
2018-01-26T08:28:52.225Z,976.47
2018-01-26T08:29:52.281Z,976.42
2018-01-26T08:30:52.222Z,976.42
2018-01-26T08:31:52.225Z,976.46
2018-01-26T08:32:52.222Z,976.48
2018-01-26T08:33:52.221Z,976.48
2018-01-26T08:34:52.253Z,976.50
2018-01-26T08:35:52.271Z,976.49
2018-01-26T08:36:52.217Z,976.54
2018-01-26T08:37:52.212Z,976.54
2018-01-26T08:38:52.210Z,976.54
2018-01-26T08:39:52.266Z,976.56
2018-01-26T08:40:52.210Z,976.57
2018-01-26T08:41:52.207Z,976.52
2018-01-26T08:42:52.203Z,976.52
2018-01-26T08:43:52.203Z,976.51
2018-01-26T08:44:52.242Z,976.52
2018-01-26T08:45:52.202Z,976.56
2018-01-26T08:46:52.256Z,976.57
2018-01-26T08:47:52.201Z,976.54
2018-01-26T08:48:52.195Z,976.54
2018-01-26T08:49:52.235Z,976.55
2018-01-26T08:50:52.196Z,976.57
2018-01-26T08:51:52.236Z,976.56
2018-01-26T08:52:52.194Z,976.54
2018-01-26T08:53:52.192Z,976.53
2018-01-26T08:54:52.188Z,976.52
2018-01-26T08:55:52.187Z,976.53
2018-01-26T08:56:52.234Z,976.53
2018-01-26T08:57:52.185Z,976.53
2018-01-26T08:58:52.185Z,976.53
2018-01-26T08:59:52.182Z,976.58
2018-01-26T09:00:52.185Z,976.61
2018-01-26T09:01:52.245Z,976.61
2018-01-26T09:02:52.180Z,976.64
2018-01-26T09:03:52.179Z,976.65
2018-01-26T09:04:52.218Z,976.65
2018-01-26T09:05:52.177Z,976.67
2018-01-26T09:06:52.175Z,976.72
2018-01-26T09:07:52.215Z,976.69
2018-01-26T09:08:52.173Z,976.71
2018-01-26T09:09:52.170Z,976.74
2018-01-26T09:10:52.181Z,976.78
2018-01-26T09:11:52.172Z,976.80
2018-01-26T09:12:52.212Z,976.82
2018-01-26T09:13:52.171Z,976.89
2018-01-26T09:14:52.171Z,976.92
2018-01-26T09:15:52.167Z,976.95
2018-01-26T09:16:52.735Z,976.96
2018-01-26T09:17:52.202Z,976.98
2018-01-26T09:18:52.164Z,977.03
2018-01-26T09:19:52.164Z,977.03
2018-01-26T09:20:52.161Z,977.03
2018-01-26T09:21:52.160Z,977.02
2018-01-26T09:22:52.203Z,977.03
2018-01-26T09:23:52.158Z,977.04
2018-01-26T09:24:52.157Z,977.08
2018-01-26T09:25:52.156Z,977.05
2018-01-26T09:26:52.182Z,977.08
2018-01-26T09:27:52.220Z,977.06
2018-01-26T09:28:52.191Z,977.06
2018-01-26T09:29:52.154Z,977.12
2018-01-26T09:30:52.152Z,977.14
2018-01-26T09:31:52.152Z,977.17
2018-01-26T09:32:52.151Z,977.21
2018-01-26T09:33:52.190Z,977.20
2018-01-26T09:34:52.146Z,977.19
2018-01-26T09:35:52.147Z,977.26
2018-01-26T09:36:52.146Z,977.24
2018-01-26T09:37:52.145Z,977.25
2018-01-26T09:38:52.182Z,977.27
2018-01-26T09:39:52.143Z,977.29
2018-01-26T09:40:52.142Z,977.25
2018-01-26T09:41:52.137Z,977.29
2018-01-26T09:42:52.396Z,977.34
2018-01-26T09:43:52.195Z,977.36
2018-01-26T09:44:52.173Z,977.39
2018-01-26T09:45:52.139Z,977.38
2018-01-26T09:46:52.133Z,977.40
2018-01-26T09:47:52.135Z,977.45
2018-01-26T09:48:52.135Z,977.45
2018-01-26T09:49:52.173Z,977.48
2018-01-26T09:50:52.130Z,977.47
2018-01-26T09:51:52.129Z,977.45
2018-01-26T09:52:52.130Z,977.47
2018-01-26T09:53:52.128Z,977.46
2018-01-26T09:54:52.168Z,977.43
2018-01-26T09:55:52.126Z,977.44
2018-01-26T09:56:52.127Z,977.47
2018-01-26T09:57:52.120Z,977.46
2018-01-26T09:58:52.121Z,977.46
2018-01-26T09:59:52.162Z,977.48
2018-01-26T10:00:52.118Z,977.49
2018-01-26T10:01:52.116Z,977.44
2018-01-26T10:02:52.115Z,977.51
2018-01-26T10:03:52.112Z,977.50
2018-01-26T10:04:52.154Z,977.53
2018-01-26T10:05:52.110Z,977.56
2018-01-26T10:06:52.110Z,977.54
2018-01-26T10:07:52.110Z,977.54
2018-01-26T10:08:52.506Z,977.54
2018-01-26T10:09:52.164Z,977.53
2018-01-26T10:10:52.104Z,977.53
2018-01-26T10:11:52.104Z,977.53
2018-01-26T10:12:52.101Z,977.55
2018-01-26T10:13:52.100Z,977.56
2018-01-26T10:14:52.156Z,977.56
2018-01-26T10:15:52.100Z,977.56
2018-01-26T10:16:52.098Z,977.59
2018-01-26T10:17:52.096Z,977.61
2018-01-26T10:18:52.114Z,977.60
2018-01-26T10:19:52.130Z,977.59
2018-01-26T10:20:52.134Z,977.58
2018-01-26T10:21:52.090Z,977.60
2018-01-26T10:22:52.091Z,977.58
2018-01-26T10:23:52.088Z,977.60
2018-01-26T10:24:52.090Z,977.56
2018-01-26T10:25:52.126Z,977.61
2018-01-26T10:26:52.085Z,977.63
2018-01-26T10:27:52.087Z,977.63
2018-01-26T10:28:52.086Z,977.65
2018-01-26T10:29:52.083Z,977.66
2018-01-26T10:30:52.141Z,977.66
2018-01-26T10:31:52.080Z,977.63
2018-01-26T10:32:52.082Z,977.66
2018-01-26T10:33:52.120Z,977.71
2018-01-26T10:34:52.080Z,977.70
2018-01-26T10:35:52.908Z,977.76
2018-01-26T10:36:52.131Z,977.73
2018-01-26T10:37:52.076Z,977.73
2018-01-26T10:38:52.075Z,977.75
2018-01-26T10:39:52.074Z,977.76
2018-01-26T10:40:52.073Z,977.79
2018-01-26T10:41:52.144Z,977.77
2018-01-26T10:42:52.075Z,977.83
2018-01-26T10:43:52.074Z,977.84
2018-01-26T10:44:52.072Z,977.86
2018-01-26T10:45:52.069Z,977.85
2018-01-26T10:46:52.124Z,977.85
2018-01-26T10:47:52.069Z,977.89
2018-01-26T10:48:52.071Z,977.87
2018-01-26T10:49:52.142Z,977.87
2018-01-26T10:50:52.069Z,977.93
2018-01-26T10:51:52.066Z,977.95
2018-01-26T10:52:52.103Z,977.95
2018-01-26T10:53:52.067Z,977.93
2018-01-26T10:54:52.060Z,977.92
2018-01-26T10:55:52.062Z,977.89
2018-01-26T10:56:52.064Z,977.91
2018-01-26T10:57:52.118Z,977.92
2018-01-26T10:58:52.059Z,977.94
2018-01-26T10:59:52.095Z,977.95
2018-01-26T11:00:52.061Z,977.95
2018-01-26T11:01:52.053Z,977.95
2018-01-26T11:02:52.055Z,977.92
2018-01-26T11:03:52.113Z,977.95
2018-01-26T11:04:52.091Z,977.96
2018-01-26T11:05:52.055Z,977.95
2018-01-26T11:06:52.053Z,977.98
2018-01-26T11:07:52.051Z,977.98
2018-01-26T11:08:52.117Z,977.97
2018-01-26T11:09:52.050Z,977.97
2018-01-26T11:10:52.049Z,977.99
2018-01-26T11:11:52.048Z,977.97
2018-01-26T11:12:52.082Z,978.03
2018-01-26T11:13:52.044Z,978.06
2018-01-26T11:14:52.301Z,978.10
2018-01-26T11:15:52.050Z,978.11
2018-01-26T11:16:52.043Z,978.06
2018-01-26T11:17:52.100Z,978.09
2018-01-26T11:18:52.042Z,978.08
2018-01-26T11:19:52.098Z,978.14
2018-01-26T11:20:52.040Z,978.20
2018-01-26T11:21:52.037Z,978.17
2018-01-26T11:22:52.426Z,978.20
2018-01-26T11:23:52.039Z,978.17
2018-01-26T11:24:52.081Z,978.22
2018-01-26T11:25:52.036Z,978.20
2018-01-26T11:26:52.038Z,978.22
2018-01-26T11:27:52.036Z,978.26
2018-01-26T11:28:52.092Z,978.23
2018-01-26T11:29:52.035Z,978.20
2018-01-26T11:30:52.068Z,978.22
2018-01-26T11:31:52.030Z,978.21
2018-01-26T11:32:52.031Z,978.24
2018-01-26T11:33:52.070Z,978.25
2018-01-26T11:34:52.029Z,978.24
2018-01-26T11:35:52.035Z,978.27
2018-01-26T11:36:52.027Z,978.27
2018-01-26T11:37:52.027Z,978.27
2018-01-26T11:38:52.063Z,978.30
2018-01-26T11:39:52.026Z,978.29
2018-01-26T11:40:52.026Z,978.28
2018-01-26T11:41:52.657Z,978.30
2018-01-26T11:42:52.025Z,978.31
2018-01-26T11:43:52.066Z,978.34
2018-01-26T11:44:52.023Z,978.33
2018-01-26T11:45:52.020Z,978.38
2018-01-26T11:46:52.021Z,978.38
2018-01-26T11:47:52.081Z,978.41
2018-01-26T11:48:52.018Z,978.48
2018-01-26T11:49:52.018Z,978.45
2018-01-26T11:50:52.016Z,978.45
2018-01-26T11:51:52.054Z,978.41
2018-01-26T11:52:52.659Z,978.41
2018-01-26T11:53:52.060Z,978.40
2018-01-26T11:54:52.014Z,978.42
2018-01-26T11:55:52.042Z,978.42
2018-01-26T11:56:52.015Z,978.39
2018-01-26T11:57:52.010Z,978.42
2018-01-26T11:58:52.048Z,978.45
2018-01-26T11:59:52.011Z,978.42
2018-01-26T12:00:52.010Z,978.47
2018-01-26T12:01:52.017Z,978.48
2018-01-26T12:02:52.009Z,978.49
2018-01-26T12:03:52.047Z,978.53
2018-01-26T12:04:52.009Z,978.57
2018-01-26T12:05:52.005Z,978.57
2018-01-26T12:06:52.012Z,978.57
2018-01-26T12:07:52.016Z,978.60
2018-01-26T12:08:52.052Z,978.57
2018-01-26T12:09:52.005Z,978.60
2018-01-26T12:10:52.001Z,978.58
2018-01-26T12:11:52.000Z,978.59
2018-01-26T12:12:52.002Z,978.54
2018-01-26T12:13:52.059Z,978.53
2018-01-26T12:14:52.001Z,978.55
2018-01-26T12:15:52.060Z,978.50
2018-01-26T12:16:52.000Z,978.49
2018-01-26T12:17:52.008Z,978.51
2018-01-26T12:18:51.995Z,978.54
2018-01-26T12:19:52.007Z,978.53
2018-01-26T12:20:52.053Z,978.54
2018-01-26T12:21:51.993Z,978.54
2018-01-26T12:22:51.995Z,978.54
2018-01-26T12:23:51.991Z,978.51
2018-01-26T12:24:51.992Z,978.50
2018-01-26T12:25:52.028Z,978.53
2018-01-26T12:26:52.360Z,978.58
2018-01-26T12:27:51.988Z,978.64
2018-01-26T12:28:51.988Z,978.61